Flight Track Log - Related Links

Times and Time Zones

All times are in EDT time to prevent confusion due to time zone crossing. See the N465TP flight status page for this flight to view local times or setup timezone preferences in your user account.

Time Position Orientation Groundspeed Altitude Reporting Facility
EDT Latitude Longitude Course Direction KTS MPH feet Rate Location/Type
Tue 10:12:31 AM 44.4117 -108.8908 131° Southeast 165 190 9,600  Level Salt Lake Center
Tue 10:13:32 AM 44.3794 -108.8386 131° Southeast 172 198 10,800 1,268 Climbing Salt Lake Center
Tue 10:14:34 AM 44.3408 -108.7753 130° Southeast 176 203 12,200 1,210 Climbing Salt Lake Center
Tue 10:15:36 AM 44.3097 -108.7222 129° Southeast 177 204 13,300 1,073 Climbing Salt Lake Center
Tue 10:16:37 AM 44.2764 -108.6689 131° Southeast 179 206 14,400 1,073 Climbing Salt Lake Center
Tue 10:17:39 AM 44.2433 -108.6114 129° Southeast 184 212 15,500 1,065 Climbing Salt Lake Center
Tue 10:18:41 AM 44.2103 -108.5564 130° Southeast 186 214 16,600 1,016 Climbing Salt Lake Center
Tue 10:19:43 AM 44.1764 -108.5000 130° Southeast 189 217 17,600 927 Climbing Salt Lake Center
Tue 10:20:44 AM 44.1417 -108.4425 130° Southeast 193 222 18,500 683 Climbing Salt Lake Center
Tue 10:21:46 AM 44.0972 -108.3722 131° Southeast 199 229 19,000 242 Climbing Salt Lake Center
Tue 10:22:48 AM 44.0556 -108.3022 130° Southeast 224 258 19,000  Level Salt Lake Center
Tue 10:23:50 AM 44.0114 -108.2306 131° Southeast 239 275 19,000 -49 Level Salt Lake Center
Tue 10:24:51 AM 43.9697 -108.1606 130° Southeast 239 275 18,900  Descending Salt Lake Center
Tue 10:25:53 AM 43.9275 -108.0903 130° Southeast 239 275 19,000  Climbing Salt Lake Center
Tue 10:26:55 AM 43.8828 -108.0197 131° Southeast 243 280 18,900 -48 Descending Salt Lake Center
Tue 10:27:57 AM 43.8303 -107.9350 131° Southeast 243 280 18,900 48 Level Salt Lake Center
Tue 10:28:59 AM 43.7869 -107.8633 130° Southeast 243 280 19,000 48 Climbing Salt Lake Center
Tue 10:30:01 AM 43.7422 -107.7897 130° Southeast 250 288 19,000  Level Salt Lake Center
Tue 10:31:02 AM 43.6978 -107.7197 131° Southeast 245 282 19,000  Level Salt Lake Center
Tue 10:32:04 AM 43.6533 -107.6458 130° Southeast 251 289 19,000  Level Salt Lake Center
Tue 10:33:06 AM 43.6100 -107.5750 130° Southeast 244 281 19,000  Level Salt Lake Center
Tue 10:34:08 AM 43.5567 -107.4917 131° Southeast 243 280 19,000  Level Salt Lake Center
Tue 10:35:10 AM 43.5117 -107.4208 131° Southeast 246 283 19,000  Level Salt Lake Center
Tue 10:36:12 AM 43.4683 -107.3486 130° Southeast 246 283 19,000  Level Salt Lake Center
Tue 10:37:14 AM 43.4228 -107.2775 131° Southeast 248 285 19,000  Level Salt Lake Center
Tue 10:38:16 AM 43.3778 -107.2061 131° Southeast 248 285 19,000 -48 Level Salt Lake Center
Tue 10:39:18 AM 43.3333 -107.1358 131° Southeast 245 282 18,900  Descending Salt Lake Center
Tue 10:40:19 AM 43.2800 -107.0489 130° Southeast 249 287 19,000 -146 Climbing Salt Lake Center
Tue 10:41:21 AM 43.2350 -106.9775 131° Southeast 249 287 18,600 -629 Descending Salt Lake Center
Tue 10:42:23 AM 43.1953 -106.9144 131° Southeast 239 275 17,700 -1,113 Descending Salt Lake Center
Tue 10:43:25 AM 43.1436 -106.8400 134° Southeast 239 275 16,300 -1,403 Descending Salt Lake Center
Tue 10:44:27 AM 43.1047 -106.7744 129° Southeast 234 269 14,800 -1,597 Descending Salt Lake Center
Tue 10:45:29 AM 43.0564 -106.7022 132° Southeast 231 266 13,000 -1,680 Descending Salt Lake Center
Tue 10:46:32 AM 43.0142 -106.6397 133° Southeast 233 268 11,300 -1,872 Descending Salt Lake Center
Tue 10:47:34 AM 42.9806 -106.5597 120° Southeast 224 258 9,100 -1,984 Descending Salt Lake Center
Tue 10:48:36 AM 42.9633 -106.4853 108° East 218 251 7,200 -1,016 Descending Salt Lake Center
Tue 10:49:38 AM 42.9447 -106.4169 110° East 217 250 7,000 -194 Descending Salt Lake Center
Tue 10:51:00 AM 42.9000 -106.4500 132° Southeast  Level FlightAware Approximate

Login

Don't have an account? Register now (free) for customized features, flight alerts, and more!